sensor_id;sensor_type;location;lat;lon;timestamp;temperature;humidity
69359;HTU21D;56520;49.066;8.660;2022-08-01T00:00:29;22.33;52.20
69359;HTU21D;56520;49.066;8.660;2022-08-01T00:02:54;22.31;52.18
69359;HTU21D;56520;49.066;8.660;2022-08-01T00:05:20;22.29;52.30
69359;HTU21D;56520;49.066;8.660;2022-08-01T00:07:45;22.26;52.30
69359;HTU21D;56520;49.066;8.660;2022-08-01T00:10:12;22.24;52.55
69359;HTU21D;56520;49.066;8.660;2022-08-01T00:12:39;22.23;52.49
69359;HTU21D;56520;49.066;8.660;2022-08-01T00:15:07;22.21;52.69
69359;HTU21D;56520;49.066;8.660;2022-08-01T00:17:33;22.18;52.82
69359;HTU21D;56520;49.066;8.660;2022-08-01T00:19:58;22.12;52.94
69359;HTU21D;56520;49.066;8.660;2022-08-01T00:22:24;22.08;53.23
69359;HTU21D;56520;49.066;8.660;2022-08-01T00:24:49;22.05;53.52
69359;HTU21D;56520;49.066;8.660;2022-08-01T00:27:15;22.01;53.65
69359;HTU21D;56520;49.066;8.660;2022-08-01T00:29:41;21.95;54.21
69359;HTU21D;56520;49.066;8.660;2022-08-01T00:32:06;21.93;54.35
69359;HTU21D;56520;49.066;8.660;2022-08-01T00:34:32;21.88;54.47
69359;HTU21D;56520;49.066;8.660;2022-08-01T00:36:57;21.87;54.61
69359;HTU21D;56520;49.066;8.660;2022-08-01T00:39:22;21.82;54.71
69359;HTU21D;56520;49.066;8.660;2022-08-01T00:41:48;21.77;54.82
69359;HTU21D;56520;49.066;8.660;2022-08-01T00:44:13;21.74;54.94
69359;HTU21D;56520;49.066;8.660;2022-08-01T00:46:39;21.70;55.25
69359;HTU21D;56520;49.066;8.660;2022-08-01T00:49:04;21.67;55.63
69359;HTU21D;56520;49.066;8.660;2022-08-01T00:51:30;21.64;55.52
69359;HTU21D;56520;49.066;8.660;2022-08-01T00:53:55;21.61;56.07
69359;HTU21D;56520;49.066;8.660;2022-08-01T00:56:24;21.57;56.16
69359;HTU21D;56520;49.066;8.660;2022-08-01T00:58:50;21.55;56.25
69359;HTU21D;56520;49.066;8.660;2022-08-01T01:01:16;21.51;56.38
69359;HTU21D;56520;49.066;8.660;2022-08-01T01:03:41;21.46;56.70
69359;HTU21D;56520;49.066;8.660;2022-08-01T01:11:37;21.36;57.01
69359;HTU21D;56520;49.066;8.660;2022-08-01T01:14:09;21.34;57.41
69359;HTU21D;56520;49.066;8.660;2022-08-01T01:16:39;21.31;57.43
69359;HTU21D;56520;49.066;8.660;2022-08-01T01:19:10;21.28;57.76
69359;HTU21D;56520;49.066;8.660;2022-08-01T01:27:05;21.09;57.71
69359;HTU21D;56520;49.066;8.660;2022-08-01T01:29:37;21.03;57.80
69359;HTU21D;56520;49.066;8.660;2022-08-01T01:32:15;20.98;57.90
69359;HTU21D;56520;49.066;8.660;2022-08-01T01:34:44;20.90;57.96
69359;HTU21D;56520;49.066;8.660;2022-08-01T01:37:15;20.85;58.07
69359;HTU21D;56520;49.066;8.660;2022-08-01T01:39:42;20.77;58.27
69359;HTU21D;56520;49.066;8.660;2022-08-01T01:42:08;20.69;58.57
69359;HTU21D;56520;49.066;8.660;2022-08-01T01:44:35;20.60;58.87
69359;HTU21D;56520;49.066;8.660;2022-08-01T01:47:02;20.53;59.03
69359;HTU21D;56520;49.066;8.660;2022-08-01T01:49:30;20.46;59.35
69359;HTU21D;56520;49.066;8.660;2022-08-01T01:51:57;20.40;59.38
69359;HTU21D;56520;49.066;8.660;2022-08-01T01:54:28;20.34;59.74
69359;HTU21D;56520;49.066;8.660;2022-08-01T01:56:58;20.27;60.04
69359;HTU21D;56520;49.066;8.660;2022-08-01T01:59:28;20.19;60.02
69359;HTU21D;56520;49.066;8.660;2022-08-01T02:01:55;20.13;60.49
69359;HTU21D;56520;49.066;8.660;2022-08-01T02:04:22;20.06;60.61
69359;HTU21D;56520;49.066;8.660;2022-08-01T02:06:50;20.01;60.90
69359;HTU21D;56520;49.066;8.660;2022-08-01T02:09:18;19.96;61.23
69359;HTU21D;56520;49.066;8.660;2022-08-01T02:11:46;19.92;61.12
69359;HTU21D;56520;49.066;8.660;2022-08-01T02:14:13;19.88;61.46
69359;HTU21D;56520;49.066;8.660;2022-08-01T02:16:45;19.83;61.92
69359;HTU21D;56520;49.066;8.660;2022-08-01T02:19:12;19.77;62.05
69359;HTU21D;56520;49.066;8.660;2022-08-01T02:21:52;19.73;62.15
69359;HTU21D;56520;49.066;8.660;2022-08-01T02:27:10;19.65;62.60
69359;HTU21D;56520;49.066;8.660;2022-08-01T02:29:47;19.60;63.08
69359;HTU21D;56520;49.066;8.660;2022-08-01T02:32:23;19.55;63.63
69359;HTU21D;56520;49.066;8.660;2022-08-01T02:34:51;19.50;63.61
69359;HTU21D;56520;49.066;8.660;2022-08-01T02:37:18;19.47;63.63
69359;HTU21D;56520;49.066;8.660;2022-08-01T02:39:45;19.45;63.63
69359;HTU21D;56520;49.066;8.660;2022-08-01T02:42:13;19.41;63.77
69359;HTU21D;56520;49.066;8.660;2022-08-01T02:44:41;19.37;64.44
69359;HTU21D;56520;49.066;8.660;2022-08-01T02:47:08;19.33;64.33
69359;HTU21D;56520;49.066;8.660;2022-08-01T02:49:39;19.31;64.34
69359;HTU21D;56520;49.066;8.660;2022-08-01T02:52:08;19.29;64.36
69359;HTU21D;56520;49.066;8.660;2022-08-01T02:54:36;19.26;64.44
69359;HTU21D;56520;49.066;8.660;2022-08-01T02:57:03;19.23;64.65
69359;HTU21D;56520;49.066;8.660;2022-08-01T02:59:29;19.20;64.69
69359;HTU21D;56520;49.066;8.660;2022-08-01T03:01:57;19.17;64.88
69359;HTU21D;56520;49.066;8.660;2022-08-01T03:04:24;19.14;65.00
69359;HTU21D;56520;49.066;8.660;2022-08-01T03:06:52;19.11;65.18
69359;HTU21D;56520;49.066;8.660;2022-08-01T03:09:18;19.09;65.64
69359;HTU21D;56520;49.066;8.660;2022-08-01T03:11:46;19.08;65.73
69359;HTU21D;56520;49.066;8.660;2022-08-01T03:14:14;19.06;65.55
69359;HTU21D;56520;49.066;8.660;2022-08-01T03:16:42;19.06;65.54
69359;HTU21D;56520;49.066;8.660;2022-08-01T03:19:09;19.03;65.74
69359;HTU21D;56520;49.066;8.660;2022-08-01T03:21:37;19.03;65.79
69359;HTU21D;56520;49.066;8.660;2022-08-01T03:24:05;19.00;65.80
69359;HTU21D;56520;49.066;8.660;2022-08-01T03:26:33;18.97;66.02
69359;HTU21D;56520;49.066;8.660;2022-08-01T03:29:04;18.94;66.28
69359;HTU21D;56520;49.066;8.660;2022-08-01T03:31:37;18.91;66.30
69359;HTU21D;56520;49.066;8.660;2022-08-01T03:34:03;18.86;66.43
69359;HTU21D;56520;49.066;8.660;2022-08-01T03:36:32;18.83;66.46
69359;HTU21D;56520;49.066;8.660;2022-08-01T03:39:01;18.80;66.99
69359;HTU21D;56520;49.066;8.660;2022-08-01T03:41:33;18.77;66.92
69359;HTU21D;56520;49.066;8.660;2022-08-01T03:44:05;18.71;66.94
69359;HTU21D;56520;49.066;8.660;2022-08-01T03:46:36;18.69;67.30
69359;HTU21D;56520;49.066;8.660;2022-08-01T03:49:11;18.64;67.34
69359;HTU21D;56520;49.066;8.660;2022-08-01T03:51:40;18.62;67.51
69359;HTU21D;56520;49.066;8.660;2022-08-01T03:54:07;18.59;67.76
69359;HTU21D;56520;49.066;8.660;2022-08-01T03:56:34;18.56;67.85
69359;HTU21D;56520;49.066;8.660;2022-08-01T03:59:00;18.55;67.96
69359;HTU21D;56520;49.066;8.660;2022-08-01T04:01:27;18.51;68.13
69359;HTU21D;56520;49.066;8.660;2022-08-01T04:03:53;18.50;68.22
69359;HTU21D;56520;49.066;8.660;2022-08-01T04:06:19;18.47;68.46
69359;HTU21D;56520;49.066;8.660;2022-08-01T04:08:45;18.44;68.65
69359;HTU21D;56520;49.066;8.660;2022-08-01T04:11:21;18.39;68.77
69359;HTU21D;56520;49.066;8.660;2022-08-01T04:13:47;18.36;68.85
69359;HTU21D;56520;49.066;8.660;2022-08-01T04:16:13;18.35;69.10
69359;HTU21D;56520;49.066;8.660;2022-08-01T04:18:39;18.34;69.36
69359;HTU21D;56520;49.066;8.660;2022-08-01T04:21:04;18.34;69.45
69359;HTU21D;56520;49.066;8.660;2022-08-01T04:23:30;18.32;69.29
69359;HTU21D;56520;49.066;8.660;2022-08-01T04:25:59;18.33;69.41
69359;HTU21D;56520;49.066;8.660;2022-08-01T04:28:26;18.32;69.49
69359;HTU21D;56520;49.066;8.660;2022-08-01T04:30:55;18.33;69.94
69359;HTU21D;56520;49.066;8.660;2022-08-01T04:33:22;18.33;69.57
69359;HTU21D;56520;49.066;8.660;2022-08-01T04:35:50;18.34;69.84
69359;HTU21D;56520;49.066;8.660;2022-08-01T04:38:19;18.33;69.86
69359;HTU21D;56520;49.066;8.660;2022-08-01T04:40:46;18.33;69.88
69359;HTU21D;56520;49.066;8.660;2022-08-01T04:43:14;18.35;69.93
69359;HTU21D;56520;49.066;8.660;2022-08-01T04:45:40;18.35;69.83
69359;HTU21D;56520;49.066;8.660;2022-08-01T04:48:06;18.36;69.80
69359;HTU21D;56520;49.066;8.660;2022-08-01T04:50:32;18.38;69.84
69359;HTU21D;56520;49.066;8.660;2022-08-01T04:52:57;18.43;70.04
69359;HTU21D;56520;49.066;8.660;2022-08-01T04:55:23;18.48;69.78
69359;HTU21D;56520;49.066;8.660;2022-08-01T04:57:48;18.55;69.77
69359;HTU21D;56520;49.066;8.660;2022-08-01T05:00:15;18.58;69.86
69359;HTU21D;56520;49.066;8.660;2022-08-01T05:02:41;18.64;70.13
69359;HTU21D;56520;49.066;8.660;2022-08-01T05:05:07;18.67;69.99
69359;HTU21D;56520;49.066;8.660;2022-08-01T05:07:33;18.71;70.11
69359;HTU21D;56520;49.066;8.660;2022-08-01T05:10:02;18.74;70.02
69359;HTU21D;56520;49.066;8.660;2022-08-01T05:12:28;18.80;70.13
69359;HTU21D;56520;49.066;8.660;2022-08-01T05:14:54;18.85;70.17
69359;HTU21D;56520;49.066;8.660;2022-08-01T05:17:19;18.89;70.16
69359;HTU21D;56520;49.066;8.660;2022-08-01T05:19:45;18.95;70.15
69359;HTU21D;56520;49.066;8.660;2022-08-01T05:22:11;18.99;70.13
69359;HTU21D;56520;49.066;8.660;2022-08-01T05:24:38;19.06;70.21
69359;HTU21D;56520;49.066;8.660;2022-08-01T05:27:04;19.11;70.05
69359;HTU21D;56520;49.066;8.660;2022-08-01T05:29:31;19.16;70.08
69359;HTU21D;56520;49.066;8.660;2022-08-01T05:31:57;19.21;70.03
69359;HTU21D;56520;49.066;8.660;2022-08-01T05:34:24;19.24;70.10
69359;HTU21D;56520;49.066;8.660;2022-08-01T05:36:50;19.30;70.38
69359;HTU21D;56520;49.066;8.660;2022-08-01T05:39:15;19.40;70.16
69359;HTU21D;56520;49.066;8.660;2022-08-01T05:41:41;19.50;70.10
69359;HTU21D;56520;49.066;8.660;2022-08-01T05:44:07;19.57;69.88
69359;HTU21D;56520;49.066;8.660;2022-08-01T05:46:35;19.66;69.78
69359;HTU21D;56520;49.066;8.660;2022-08-01T05:49:02;19.74;69.65
69359;HTU21D;56520;49.066;8.660;2022-08-01T05:51:27;19.83;69.61
69359;HTU21D;56520;49.066;8.660;2022-08-01T05:53:53;19.94;69.61
69359;HTU21D;56520;49.066;8.660;2022-08-01T05:56:19;20.13;69.50
69359;HTU21D;56520;49.066;8.660;2022-08-01T05:58:45;20.36;68.79
69359;HTU21D;56520;49.066;8.660;2022-08-01T06:01:11;20.60;68.08
69359;HTU21D;56520;49.066;8.660;2022-08-01T06:03:36;20.74;67.74
69359;HTU21D;56520;49.066;8.660;2022-08-01T06:06:02;20.93;67.17
69359;HTU21D;56520;49.066;8.660;2022-08-01T06:08:28;21.05;67.16
69359;HTU21D;56520;49.066;8.660;2022-08-01T06:10:54;21.15;67.00
69359;HTU21D;56520;49.066;8.660;2022-08-01T06:13:19;21.27;66.59
69359;HTU21D;56520;49.066;8.660;2022-08-01T06:15:45;21.36;66.40
69359;HTU21D;56520;49.066;8.660;2022-08-01T06:18:11;21.46;65.98
69359;HTU21D;56520;49.066;8.660;2022-08-01T06:20:37;21.63;65.14
69359;HTU21D;56520;49.066;8.660;2022-08-01T06:23:03;21.67;65.31
69359;HTU21D;56520;49.066;8.660;2022-08-01T06:25:28;21.76;64.93
69359;HTU21D;56520;49.066;8.660;2022-08-01T06:27:53;21.81;65.14
69359;HTU21D;56520;49.066;8.660;2022-08-01T06:30:19;21.87;64.81
69359;HTU21D;56520;49.066;8.660;2022-08-01T06:32:44;21.95;64.28
69359;HTU21D;56520;49.066;8.660;2022-08-01T06:35:10;22.01;64.32
69359;HTU21D;56520;49.066;8.660;2022-08-01T06:37:36;22.06;64.19
69359;HTU21D;56520;49.066;8.660;2022-08-01T06:40:03;22.09;64.24
69359;HTU21D;56520;49.066;8.660;2022-08-01T06:42:29;22.18;63.94
69359;HTU21D;56520;49.066;8.660;2022-08-01T06:44:57;22.25;63.56
69359;HTU21D;56520;49.066;8.660;2022-08-01T06:47:23;22.27;63.77
69359;HTU21D;56520;49.066;8.660;2022-08-01T06:49:48;22.32;63.93
69359;HTU21D;56520;49.066;8.660;2022-08-01T06:52:13;22.37;63.94
69359;HTU21D;56520;49.066;8.660;2022-08-01T06:54:39;22.47;63.71
69359;HTU21D;56520;49.066;8.660;2022-08-01T06:57:05;22.50;63.76
69359;HTU21D;56520;49.066;8.660;2022-08-01T06:59:30;22.63;63.10
69359;HTU21D;56520;49.066;8.660;2022-08-01T07:01:56;22.70;63.34
69359;HTU21D;56520;49.066;8.660;2022-08-01T07:04:21;22.81;62.86
69359;HTU21D;56520;49.066;8.660;2022-08-01T07:06:47;22.90;62.42
69359;HTU21D;56520;49.066;8.660;2022-08-01T07:09:12;22.88;62.76
69359;HTU21D;56520;49.066;8.660;2022-08-01T07:11:37;22.94;62.81
69359;HTU21D;56520;49.066;8.660;2022-08-01T07:14:03;22.98;62.63
69359;HTU21D;56520;49.066;8.660;2022-08-01T07:16:28;23.06;62.41
69359;HTU21D;56520;49.066;8.660;2022-08-01T07:18:54;23.12;61.83
69359;HTU21D;56520;49.066;8.660;2022-08-01T07:21:19;23.18;61.52
69359;HTU21D;56520;49.066;8.660;2022-08-01T07:23:45;23.22;61.47
69359;HTU21D;56520;49.066;8.660;2022-08-01T07:26:10;23.22;61.69
69359;HTU21D;56520;49.066;8.660;2022-08-01T07:28:36;23.27;61.59
69359;HTU21D;56520;49.066;8.660;2022-08-01T07:31:01;23.38;60.95
69359;HTU21D;56520;49.066;8.660;2022-08-01T07:33:27;23.43;61.07
69359;HTU21D;56520;49.066;8.660;2022-08-01T07:35:52;23.61;60.77
69359;HTU21D;56520;49.066;8.660;2022-08-01T07:38:17;23.79;60.18
69359;HTU21D;56520;49.066;8.660;2022-08-01T07:40:44;23.89;59.93
69359;HTU21D;56520;49.066;8.660;2022-08-01T07:43:09;23.96;59.57
69359;HTU21D;56520;49.066;8.660;2022-08-01T07:45:35;24.00;59.27
69359;HTU21D;56520;49.066;8.660;2022-08-01T07:48:04;24.08;59.28
69359;HTU21D;56520;49.066;8.660;2022-08-01T07:50:30;24.16;59.07
69359;HTU21D;56520;49.066;8.660;2022-08-01T07:52:55;24.25;58.92
69359;HTU21D;56520;49.066;8.660;2022-08-01T07:55:21;24.32;58.45
69359;HTU21D;56520;49.066;8.660;2022-08-01T07:57:46;24.32;58.35
69359;HTU21D;56520;49.066;8.660;2022-08-01T08:00:12;24.30;58.41
69359;HTU21D;56520;49.066;8.660;2022-08-01T08:02:38;24.29;58.54
69359;HTU21D;56520;49.066;8.660;2022-08-01T08:05:04;24.33;58.12
69359;HTU21D;56520;49.066;8.660;2022-08-01T08:07:29;24.35;58.09
69359;HTU21D;56520;49.066;8.660;2022-08-01T08:09:55;24.36;58.49
69359;HTU21D;56520;49.066;8.660;2022-08-01T08:12:21;24.41;58.50
69359;HTU21D;56520;49.066;8.660;2022-08-01T08:14:47;24.41;58.54
69359;HTU21D;56520;49.066;8.660;2022-08-01T08:17:12;24.51;58.03
69359;HTU21D;56520;49.066;8.660;2022-08-01T08:19:37;24.59;57.85
69359;HTU21D;56520;49.066;8.660;2022-08-01T08:22:05;24.72;57.39
69359;HTU21D;56520;49.066;8.660;2022-08-01T08:24:31;24.77;56.72
69359;HTU21D;56520;49.066;8.660;2022-08-01T08:26:58;24.79;56.66
69359;HTU21D;56520;49.066;8.660;2022-08-01T08:29:24;24.85;56.70
69359;HTU21D;56520;49.066;8.660;2022-08-01T08:31:52;24.86;56.71
69359;HTU21D;56520;49.066;8.660;2022-08-01T08:34:19;24.91;56.52
69359;HTU21D;56520;49.066;8.660;2022-08-01T08:36:44;24.95;56.74
69359;HTU21D;56520;49.066;8.660;2022-08-01T08:39:09;25.03;56.91
69359;HTU21D;56520;49.066;8.660;2022-08-01T08:41:36;25.06;56.98
69359;HTU21D;56520;49.066;8.660;2022-08-01T08:44:05;25.06;56.91
69359;HTU21D;56520;49.066;8.660;2022-08-01T08:46:32;25.08;57.08
69359;HTU21D;56520;49.066;8.660;2022-08-01T08:48:59;25.17;56.07
69359;HTU21D;56520;49.066;8.660;2022-08-01T08:51:26;25.16;55.70
69359;HTU21D;56520;49.066;8.660;2022-08-01T08:53:54;25.16;55.95
69359;HTU21D;56520;49.066;8.660;2022-08-01T08:56:21;25.15;55.03
69359;HTU21D;56520;49.066;8.660;2022-08-01T08:58:48;25.19;54.94
69359;HTU21D;56520;49.066;8.660;2022-08-01T09:01:15;25.22;55.21
69359;HTU21D;56520;49.066;8.660;2022-08-01T09:03:43;25.30;54.95
69359;HTU21D;56520;49.066;8.660;2022-08-01T09:06:09;25.65;54.68
69359;HTU21D;56520;49.066;8.660;2022-08-01T09:08:34;25.71;54.13
69359;HTU21D;56520;49.066;8.660;2022-08-01T09:11:00;25.58;54.97
69359;HTU21D;56520;49.066;8.660;2022-08-01T09:13:25;25.61;54.36
69359;HTU21D;56520;49.066;8.660;2022-08-01T09:15:53;25.59;54.75
69359;HTU21D;56520;49.066;8.660;2022-08-01T09:18:26;25.83;54.80
69359;HTU21D;56520;49.066;8.660;2022-08-01T09:21:10;26.25;53.89
69359;HTU21D;56520;49.066;8.660;2022-08-01T09:23:47;26.58;52.84
69359;HTU21D;56520;49.066;8.660;2022-08-01T09:26:32;26.87;51.72
69359;HTU21D;56520;49.066;8.660;2022-08-01T09:28:59;26.93;50.25
69359;HTU21D;56520;49.066;8.660;2022-08-01T09:31:27;26.87;50.76
69359;HTU21D;56520;49.066;8.660;2022-08-01T09:33:59;26.86;50.70
69359;HTU21D;56520;49.066;8.660;2022-08-01T09:36:54;26.92;51.36
69359;HTU21D;56520;49.066;8.660;2022-08-01T09:39:24;27.11;50.80
69359;HTU21D;56520;49.066;8.660;2022-08-01T09:41:50;27.24;50.76
69359;HTU21D;56520;49.066;8.660;2022-08-01T09:44:17;27.42;50.35
69359;HTU21D;56520;49.066;8.660;2022-08-01T09:46:55;27.65;49.57
69359;HTU21D;56520;49.066;8.660;2022-08-01T09:49:35;27.79;49.06
69359;HTU21D;56520;49.066;8.660;2022-08-01T09:54:36;28.06;49.19
69359;HTU21D;56520;49.066;8.660;2022-08-01T09:57:14;28.38;47.58
69359;HTU21D;56520;49.066;8.660;2022-08-01T09:59:43;28.69;46.51
69359;HTU21D;56520;49.066;8.660;2022-08-01T10:02:10;28.89;46.34
69359;HTU21D;56520;49.066;8.660;2022-08-01T10:04:46;29.07;46.05
69359;HTU21D;56520;49.066;8.660;2022-08-01T10:07:12;29.23;46.93
69359;HTU21D;56520;49.066;8.660;2022-08-01T10:09:40;29.45;44.12
69359;HTU21D;56520;49.066;8.660;2022-08-01T10:12:06;29.27;44.16
69359;HTU21D;56520;49.066;8.660;2022-08-01T10:14:32;28.87;44.43
69359;HTU21D;56520;49.066;8.660;2022-08-01T10:16:59;28.49;45.35
69359;HTU21D;56520;49.066;8.660;2022-08-01T10:19:27;28.37;46.08
69359;HTU21D;56520;49.066;8.660;2022-08-01T10:21:55;28.27;46.75
69359;HTU21D;56520;49.066;8.660;2022-08-01T10:24:22;28.26;45.80
69359;HTU21D;56520;49.066;8.660;2022-08-01T10:26:58;28.05;46.23
69359;HTU21D;56520;49.066;8.660;2022-08-01T10:29:27;27.87;46.99
69359;HTU21D;56520;49.066;8.660;2022-08-01T10:31:53;27.75;47.38
69359;HTU21D;56520;49.066;8.660;2022-08-01T10:34:19;27.65;47.93
69359;HTU21D;56520;49.066;8.660;2022-08-01T10:36:46;27.70;46.86
69359;HTU21D;56520;49.066;8.660;2022-08-01T10:39:12;27.64;47.88
69359;HTU21D;56520;49.066;8.660;2022-08-01T10:41:40;27.88;48.24
69359;HTU21D;56520;49.066;8.660;2022-08-01T10:44:07;28.24;45.99
69359;HTU21D;56520;49.066;8.660;2022-08-01T10:46:37;28.45;45.90
69359;HTU21D;56520;49.066;8.660;2022-08-01T10:49:10;28.86;45.07
69359;HTU21D;56520;49.066;8.660;2022-08-01T10:51:37;29.31;43.56
69359;HTU21D;56520;49.066;8.660;2022-08-01T10:54:09;29.65;43.64
69359;HTU21D;56520;49.066;8.660;2022-08-01T10:56:53;29.98;43.10
69359;HTU21D;56520;49.066;8.660;2022-08-01T10:59:24;29.90;41.61
69359;HTU21D;56520;49.066;8.660;2022-08-01T11:02:04;29.72;42.25
69359;HTU21D;56520;49.066;8.660;2022-08-01T11:04:51;29.58;42.90
69359;HTU21D;56520;49.066;8.660;2022-08-01T11:07:34;29.75;42.42
69359;HTU21D;56520;49.066;8.660;2022-08-01T11:10:13;29.72;42.24
69359;HTU21D;56520;49.066;8.660;2022-08-01T11:12:41;29.43;42.61
69359;HTU21D;56520;49.066;8.660;2022-08-01T11:17:46;28.98;43.70
69359;HTU21D;56520;49.066;8.660;2022-08-01T11:20:19;28.94;44.41
69359;HTU21D;56520;49.066;8.660;2022-08-01T11:33:47;29.88;42.56
69359;HTU21D;56520;49.066;8.660;2022-08-01T11:39:10;29.18;43.16
69359;HTU21D;56520;49.066;8.660;2022-08-01T11:41:36;28.79;43.79
69359;HTU21D;56520;49.066;8.660;2022-08-01T11:46:50;28.48;44.74
69359;HTU21D;56520;49.066;8.660;2022-08-01T11:54:36;28.35;45.90
69359;HTU21D;56520;49.066;8.660;2022-08-01T11:57:05;28.35;46.03
69359;HTU21D;56520;49.066;8.660;2022-08-01T11:59:45;28.46;45.79
69359;HTU21D;56520;49.066;8.660;2022-08-01T12:05:00;29.32;44.47
69359;HTU21D;56520;49.066;8.660;2022-08-01T12:07:27;29.68;42.37
69359;HTU21D;56520;49.066;8.660;2022-08-01T12:10:08;30.01;43.02
69359;HTU21D;56520;49.066;8.660;2022-08-01T12:12:36;30.23;42.20
69359;HTU21D;56520;49.066;8.660;2022-08-01T12:15:08;30.53;42.39
69359;HTU21D;56520;49.066;8.660;2022-08-01T12:17:37;30.94;41.54
69359;HTU21D;56520;49.066;8.660;2022-08-01T12:20:05;31.00;39.11
69359;HTU21D;56520;49.066;8.660;2022-08-01T12:22:31;30.75;38.93
69359;HTU21D;56520;49.066;8.660;2022-08-01T12:25:05;30.66;39.77
69359;HTU21D;56520;49.066;8.660;2022-08-01T12:27:31;30.63;39.91
69359;HTU21D;56520;49.066;8.660;2022-08-01T12:29:58;30.79;39.88
69359;HTU21D;56520;49.066;8.660;2022-08-01T12:32:32;31.08;39.42
69359;HTU21D;56520;49.066;8.660;2022-08-01T12:37:27;31.10;39.01
69359;HTU21D;56520;49.066;8.660;2022-08-01T12:39:53;31.15;38.85
69359;HTU21D;56520;49.066;8.660;2022-08-01T12:42:18;31.10;39.23
69359;HTU21D;56520;49.066;8.660;2022-08-01T12:44:45;31.37;38.69
69359;HTU21D;56520;49.066;8.660;2022-08-01T12:47:13;31.64;38.77
69359;HTU21D;56520;49.066;8.660;2022-08-01T12:49:42;31.76;38.61
69359;HTU21D;56520;49.066;8.660;2022-08-01T12:52:08;31.81;37.65
69359;HTU21D;56520;49.066;8.660;2022-08-01T12:55:06;31.80;38.18
69359;HTU21D;56520;49.066;8.660;2022-08-01T12:57:34;32.05;37.23
69359;HTU21D;56520;49.066;8.660;2022-08-01T13:00:10;32.28;36.22
69359;HTU21D;56520;49.066;8.660;2022-08-01T13:02:36;31.99;36.67
69359;HTU21D;56520;49.066;8.660;2022-08-01T13:05:03;31.69;36.85
69359;HTU21D;56520;49.066;8.660;2022-08-01T13:10:01;31.79;35.81
69359;HTU21D;56520;49.066;8.660;2022-08-01T13:12:26;31.87;36.57
69359;HTU21D;56520;49.066;8.660;2022-08-01T13:14:52;31.84;35.73
69359;HTU21D;56520;49.066;8.660;2022-08-01T13:17:33;31.54;36.08
69359;HTU21D;56520;49.066;8.660;2022-08-01T13:20:01;31.45;36.79
69359;HTU21D;56520;49.066;8.660;2022-08-01T13:22:36;31.58;36.82
69359;HTU21D;56520;49.066;8.660;2022-08-01T13:25:13;31.61;37.10
69359;HTU21D;56520;49.066;8.660;2022-08-01T13:27:38;31.42;36.56
69359;HTU21D;56520;49.066;8.660;2022-08-01T13:32:37;31.23;37.56
69359;HTU21D;56520;49.066;8.660;2022-08-01T13:35:08;31.28;37.39
69359;HTU21D;56520;49.066;8.660;2022-08-01T13:37:33;31.39;36.95
69359;HTU21D;56520;49.066;8.660;2022-08-01T13:39:59;31.42;36.05
69359;HTU21D;56520;49.066;8.660;2022-08-01T13:42:24;31.08;36.87
69359;HTU21D;56520;49.066;8.660;2022-08-01T13:44:50;30.94;37.32
69359;HTU21D;56520;49.066;8.660;2022-08-01T13:47:15;30.79;37.17
69359;HTU21D;56520;49.066;8.660;2022-08-01T13:49:41;30.81;37.74
69359;HTU21D;56520;49.066;8.660;2022-08-01T13:52:06;31.06;37.14
69359;HTU21D;56520;49.066;8.660;2022-08-01T13:54:32;31.22;36.39
69359;HTU21D;56520;49.066;8.660;2022-08-01T13:56:58;31.26;36.42
69359;HTU21D;56520;49.066;8.660;2022-08-01T13:59:24;31.29;36.69
69359;HTU21D;56520;49.066;8.660;2022-08-01T14:01:49;31.38;36.98
69359;HTU21D;56520;49.066;8.660;2022-08-01T14:04:15;31.35;36.11
69359;HTU21D;56520;49.066;8.660;2022-08-01T14:06:40;31.21;35.76
69359;HTU21D;56520;49.066;8.660;2022-08-01T14:09:06;30.95;36.21
69359;HTU21D;56520;49.066;8.660;2022-08-01T14:11:31;30.81;36.59
69359;HTU21D;56520;49.066;8.660;2022-08-01T14:13:57;30.65;37.16
69359;HTU21D;56520;49.066;8.660;2022-08-01T14:16:23;30.48;37.47
69359;HTU21D;56520;49.066;8.660;2022-08-01T14:18:49;30.42;37.45
69359;HTU21D;56520;49.066;8.660;2022-08-01T14:21:14;30.54;37.34
69359;HTU21D;56520;49.066;8.660;2022-08-01T14:23:40;30.54;36.72
69359;HTU21D;56520;49.066;8.660;2022-08-01T14:26:08;30.50;37.17
69359;HTU21D;56520;49.066;8.660;2022-08-01T14:28:33;30.45;37.62
69359;HTU21D;56520;49.066;8.660;2022-08-01T14:30:59;30.36;37.85
69359;HTU21D;56520;49.066;8.660;2022-08-01T14:33:25;30.36;37.88
69359;HTU21D;56520;49.066;8.660;2022-08-01T14:35:51;30.31;37.98
69359;HTU21D;56520;49.066;8.660;2022-08-01T14:38:17;30.19;38.01
69359;HTU21D;56520;49.066;8.660;2022-08-01T14:40:42;30.03;38.08
69359;HTU21D;56520;49.066;8.660;2022-08-01T14:43:08;29.92;38.40
69359;HTU21D;56520;49.066;8.660;2022-08-01T14:45:34;29.90;38.40
69359;HTU21D;56520;49.066;8.660;2022-08-01T14:48:00;29.87;38.70
69359;HTU21D;56520;49.066;8.660;2022-08-01T14:50:25;29.83;38.49
69359;HTU21D;56520;49.066;8.660;2022-08-01T14:52:54;29.81;38.66
69359;HTU21D;56520;49.066;8.660;2022-08-01T14:55:19;29.78;38.82
69359;HTU21D;56520;49.066;8.660;2022-08-01T14:57:48;29.79;39.11
69359;HTU21D;56520;49.066;8.660;2022-08-01T15:00:14;29.74;39.31
69359;HTU21D;56520;49.066;8.660;2022-08-01T15:02:40;29.76;38.91
69359;HTU21D;56520;49.066;8.660;2022-08-01T15:05:07;29.66;38.98
69359;HTU21D;56520;49.066;8.660;2022-08-01T15:07:33;29.67;39.62
69359;HTU21D;56520;49.066;8.660;2022-08-01T15:09:58;29.76;39.38
69359;HTU21D;56520;49.066;8.660;2022-08-01T15:12:23;29.75;39.50
69359;HTU21D;56520;49.066;8.660;2022-08-01T15:14:49;29.71;39.38
69359;HTU21D;56520;49.066;8.660;2022-08-01T15:17:17;29.61;39.72
69359;HTU21D;56520;49.066;8.660;2022-08-01T15:19:44;29.52;39.73
69359;HTU21D;56520;49.066;8.660;2022-08-01T15:22:09;29.38;39.84
69359;HTU21D;56520;49.066;8.660;2022-08-01T15:24:35;29.21;39.86
69359;HTU21D;56520;49.066;8.660;2022-08-01T15:27:00;29.08;40.32
69359;HTU21D;56520;49.066;8.660;2022-08-01T15:29:26;28.97;40.51
69359;HTU21D;56520;49.066;8.660;2022-08-01T15:31:51;28.94;40.77
69359;HTU21D;56520;49.066;8.660;2022-08-01T15:34:17;28.88;40.87
69359;HTU21D;56520;49.066;8.660;2022-08-01T15:36:42;28.83;40.89
69359;HTU21D;56520;49.066;8.660;2022-08-01T15:39:11;28.79;41.33
69359;HTU21D;56520;49.066;8.660;2022-08-01T15:41:37;28.78;41.20
69359;HTU21D;56520;49.066;8.660;2022-08-01T15:44:02;28.71;41.23
69359;HTU21D;56520;49.066;8.660;2022-08-01T15:46:28;28.67;41.39
69359;HTU21D;56520;49.066;8.660;2022-08-01T15:48:53;28.61;41.61
69359;HTU21D;56520;49.066;8.660;2022-08-01T15:51:19;28.60;42.00
69359;HTU21D;56520;49.066;8.660;2022-08-01T15:53:44;28.56;41.94
69359;HTU21D;56520;49.066;8.660;2022-08-01T15:56:12;28.49;42.10
69359;HTU21D;56520;49.066;8.660;2022-08-01T15:58:38;28.45;42.62
69359;HTU21D;56520;49.066;8.660;2022-08-01T16:01:03;28.39;42.50
69359;HTU21D;56520;49.066;8.660;2022-08-01T16:03:29;28.30;42.72
69359;HTU21D;56520;49.066;8.660;2022-08-01T16:05:54;28.16;42.95
69359;HTU21D;56520;49.066;8.660;2022-08-01T16:08:20;28.06;43.26